createdAt,value
2018-09-27T00:00:35.762Z,84.70
2018-09-27T00:03:38.865Z,84.80
2018-09-27T00:06:41.941Z,84.80
2018-09-27T00:09:45.037Z,84.70
2018-09-27T00:12:48.128Z,84.80
2018-09-27T00:15:51.226Z,85.20
2018-09-27T00:18:54.318Z,84.30
2018-09-27T00:21:57.409Z,83.60
2018-09-27T00:25:00.504Z,83.40
2018-09-27T00:28:03.601Z,83.70
2018-09-27T00:31:06.844Z,83.00
2018-09-27T00:34:09.942Z,83.40
2018-09-27T00:37:13.022Z,83.70
2018-09-27T00:40:16.108Z,83.70
2018-09-27T00:43:19.197Z,83.60
2018-09-27T00:46:22.272Z,83.10
2018-09-27T00:49:25.369Z,83.10
2018-09-27T00:52:28.457Z,82.60
2018-09-27T00:55:31.533Z,83.00
2018-09-27T00:58:34.635Z,82.60
2018-09-27T01:01:37.709Z,82.10
2018-09-27T01:04:40.842Z,82.20
2018-09-27T01:07:43.897Z,82.20
2018-09-27T01:10:46.961Z,82.90
2018-09-27T01:13:50.101Z,84.10
2018-09-27T01:16:53.209Z,83.70
2018-09-27T01:19:56.302Z,83.90
2018-09-27T01:22:59.396Z,83.60
2018-09-27T01:26:02.491Z,83.70
2018-09-27T01:29:05.833Z,83.30
2018-09-27T01:32:08.912Z,82.30
2018-09-27T01:35:12.009Z,82.10
2018-09-27T01:38:15.138Z,82.20
2018-09-27T01:41:18.216Z,83.10
2018-09-27T01:44:21.378Z,83.80
2018-09-27T01:47:24.453Z,83.40
2018-09-27T01:50:27.564Z,83.10
2018-09-27T01:53:30.686Z,82.90
2018-09-27T01:56:33.777Z,82.00
2018-09-27T01:59:36.849Z,81.40
2018-09-27T02:02:39.962Z,81.60
2018-09-27T02:05:43.033Z,81.10
2018-09-27T02:08:46.127Z,80.90
2018-09-27T02:11:49.233Z,81.30
2018-09-27T02:14:52.317Z,81.90
2018-09-27T02:17:55.410Z,82.20
2018-09-27T02:20:58.487Z,82.80
2018-09-27T02:24:01.575Z,83.20
2018-09-27T02:27:04.689Z,83.30
2018-09-27T02:30:07.797Z,83.80
2018-09-27T02:33:10.936Z,84.00
2018-09-27T02:36:14.082Z,83.90
2018-09-27T02:39:17.202Z,84.10
2018-09-27T02:42:20.388Z,83.70
2018-09-27T02:45:23.549Z,84.10
2018-09-27T02:48:26.679Z,83.90
2018-09-27T02:51:29.786Z,82.50
2018-09-27T02:54:32.935Z,82.60
2018-09-27T02:57:36.022Z,81.70
2018-09-27T03:00:39.149Z,81.70
2018-09-27T03:03:42.242Z,81.70
2018-09-27T03:06:46.003Z,81.20
2018-09-27T03:09:49.142Z,81.10
2018-09-27T03:12:52.288Z,80.30
2018-09-27T03:15:55.438Z,79.90
2018-09-27T03:18:58.596Z,79.40
2018-09-27T03:22:01.723Z,79.00
2018-09-27T03:25:04.878Z,79.60
2018-09-27T03:28:08.013Z,79.70
2018-09-27T03:31:11.126Z,80.00
2018-09-27T03:34:14.240Z,79.80
2018-09-27T03:37:17.370Z,80.30
2018-09-27T03:40:20.663Z,80.00
2018-09-27T03:43:23.731Z,79.80
2018-09-27T03:46:26.874Z,79.50
2018-09-27T03:49:30.009Z,79.80
2018-09-27T03:52:33.139Z,79.00
2018-09-27T03:55:36.350Z,79.40
2018-09-27T03:58:39.465Z,79.60
2018-09-27T04:01:42.578Z,79.30
2018-09-27T04:04:45.719Z,79.40
2018-09-27T04:07:48.826Z,79.40
2018-09-27T04:10:51.975Z,79.50
2018-09-27T04:13:55.138Z,79.40
2018-09-27T04:16:58.283Z,79.00
2018-09-27T04:20:01.422Z,79.40
2018-09-27T04:23:04.543Z,79.40
2018-09-27T04:26:07.686Z,78.80
2018-09-27T04:29:10.815Z,78.70
2018-09-27T04:32:13.948Z,78.70
2018-09-27T04:35:17.081Z,78.70
2018-09-27T04:38:20.214Z,78.80
2018-09-27T04:41:23.307Z,78.70
2018-09-27T04:44:26.425Z,78.70
2018-09-27T04:47:29.566Z,79.30
2018-09-27T04:50:32.675Z,79.50
2018-09-27T04:53:36.008Z,79.30
2018-09-27T04:56:39.161Z,79.00
2018-09-27T04:59:42.294Z,78.70
2018-09-27T05:02:45.454Z,78.00
2018-09-27T05:05:48.646Z,78.00
2018-09-27T05:08:51.751Z,78.20
2018-09-27T05:11:54.902Z,78.60
2018-09-27T05:14:58.034Z,78.60
2018-09-27T05:18:01.178Z,78.50
2018-09-27T05:21:04.326Z,78.40
2018-09-27T05:24:07.502Z,78.50
2018-09-27T05:27:10.675Z,78.60
2018-09-27T05:30:13.727Z,79.00
2018-09-27T05:33:16.898Z,79.80
2018-09-27T05:36:20.046Z,79.30
2018-09-27T05:39:23.201Z,80.30
2018-09-27T05:42:26.400Z,80.20
2018-09-27T05:45:29.583Z,80.10
2018-09-27T05:48:32.703Z,80.50
2018-09-27T05:51:35.838Z,81.00
2018-09-27T05:54:38.962Z,81.40
2018-09-27T05:57:42.171Z,80.70
2018-09-27T06:00:45.257Z,80.70
2018-09-27T06:03:48.376Z,80.20
2018-09-27T06:06:51.515Z,80.00
2018-09-27T06:09:54.607Z,78.80
2018-09-27T06:12:57.756Z,76.70
2018-09-27T06:16:01.008Z,74.80
2018-09-27T06:19:04.169Z,75.00
2018-09-27T06:22:07.330Z,75.00
2018-09-27T06:25:10.419Z,75.10
2018-09-27T06:28:13.702Z,75.40
2018-09-27T06:31:16.812Z,75.60
2018-09-27T06:34:19.967Z,75.60
2018-09-27T06:37:23.107Z,75.50
2018-09-27T06:40:26.244Z,76.50
2018-09-27T06:43:29.363Z,77.10
2018-09-27T06:46:32.528Z,77.30
2018-09-27T06:49:35.646Z,77.70
2018-09-27T06:52:38.770Z,75.80
2018-09-27T06:55:42.077Z,75.70
2018-09-27T06:58:45.737Z,74.50
2018-09-27T07:01:48.971Z,74.40
2018-09-27T07:04:52.112Z,74.30
2018-09-27T07:07:56.098Z,74.00
2018-09-27T07:11:02.766Z,73.10
2018-09-27T07:14:05.870Z,72.20
2018-09-27T07:17:08.990Z,72.80
2018-09-27T07:20:12.273Z,72.50
2018-09-27T07:23:15.398Z,70.90
2018-09-27T07:26:19.556Z,70.10
2018-09-27T07:29:22.780Z,69.50
2018-09-27T07:32:25.988Z,69.40
2018-09-27T07:35:29.054Z,68.30
2018-09-27T07:38:32.242Z,66.60
2018-09-27T07:41:41.854Z,62.00
2018-09-27T07:44:45.023Z,57.40
2018-09-27T07:47:48.143Z,54.30
2018-09-27T07:50:51.316Z,51.70
2018-09-27T07:53:54.496Z,48.70
2018-09-27T07:56:57.618Z,47.80
2018-09-27T08:00:00.741Z,48.00
2018-09-27T08:03:03.885Z,46.90
2018-09-27T08:06:07.131Z,47.90
2018-09-27T08:09:10.290Z,48.30
2018-09-27T08:12:13.439Z,47.50
2018-09-27T08:15:16.564Z,46.50
2018-09-27T08:18:19.713Z,46.20
2018-09-27T08:21:22.889Z,46.10
2018-09-27T08:24:25.957Z,46.70
2018-09-27T08:27:29.063Z,45.60
2018-09-27T08:30:32.234Z,44.80
2018-09-27T08:33:35.353Z,43.50
2018-09-27T08:36:38.475Z,43.30
2018-09-27T08:39:41.596Z,43.10
2018-09-27T08:42:44.734Z,43.90
2018-09-27T08:45:48.011Z,44.40
2018-09-27T08:48:50.974Z,44.50
2018-09-27T08:51:54.079Z,45.40
2018-09-27T08:54:57.218Z,45.90
2018-09-27T08:58:00.608Z,47.10
2018-09-27T09:01:03.759Z,46.70
2018-09-27T09:04:06.982Z,46.00
2018-09-27T09:07:10.096Z,46.50
2018-09-27T09:10:13.210Z,47.20
2018-09-27T09:13:16.307Z,47.60
2018-09-27T09:16:19.459Z,50.20
2018-09-27T09:19:22.586Z,50.40
2018-09-27T09:22:25.729Z,51.80
2018-09-27T09:25:28.882Z,52.50
2018-09-27T09:28:31.948Z,52.50
2018-09-27T09:31:35.091Z,54.50
2018-09-27T09:34:38.202Z,55.50
2018-09-27T09:37:41.334Z,56.90
2018-09-27T09:40:44.736Z,57.80
2018-09-27T09:43:47.862Z,60.70
2018-09-27T09:46:50.954Z,59.60
2018-09-27T09:49:54.127Z,61.80
2018-09-27T09:52:57.216Z,62.00
2018-09-27T09:56:00.439Z,68.30
2018-09-27T09:59:03.563Z,70.30
2018-09-27T10:02:06.666Z,67.50
2018-09-27T10:05:09.795Z,66.00
2018-09-27T10:08:12.904Z,65.70
2018-09-27T10:11:16.019Z,64.10
2018-09-27T10:14:19.114Z,62.90
2018-09-27T10:17:22.226Z,61.70
2018-09-27T10:20:25.350Z,58.00
2018-09-27T10:23:28.483Z,56.50
2018-09-27T10:26:31.663Z,57.40
2018-09-27T10:29:34.829Z,56.40
2018-09-27T10:32:37.979Z,56.00
2018-09-27T10:35:41.078Z,57.50
2018-09-27T10:38:44.378Z,57.30
2018-09-27T10:41:47.502Z,57.50
2018-09-27T10:44:50.668Z,58.20
2018-09-27T10:47:53.783Z,57.80
2018-09-27T10:50:56.886Z,58.30
2018-09-27T10:53:59.998Z,58.60
2018-09-27T10:57:03.159Z,59.50
2018-09-27T11:00:06.283Z,58.60
2018-09-27T11:03:09.403Z,58.60
2018-09-27T11:06:12.522Z,58.40
2018-09-27T11:09:15.650Z,58.00
2018-09-27T11:12:18.802Z,57.20
2018-09-27T11:15:21.979Z,57.30
2018-09-27T11:18:25.126Z,57.00
2018-09-27T11:21:28.219Z,56.40
2018-09-27T11:24:31.326Z,56.20
2018-09-27T11:27:34.516Z,56.30
2018-09-27T11:30:37.562Z,56.00
2018-09-27T11:33:40.903Z,56.70
2018-09-27T11:36:44.078Z,57.00
2018-09-27T11:39:47.198Z,57.40
2018-09-27T11:42:50.334Z,57.80
2018-09-27T11:46:00.298Z,58.20
2018-09-27T11:49:03.768Z,57.50
2018-09-27T11:52:06.883Z,57.40
2018-09-27T11:55:10.616Z,58.10
2018-09-27T11:58:13.699Z,58.00
2018-09-27T12:01:16.802Z,59.00
2018-09-27T12:04:19.927Z,58.20
2018-09-27T12:07:23.118Z,59.00
2018-09-27T12:10:26.250Z,58.70
2018-09-27T12:13:29.455Z,59.30
2018-09-27T12:16:32.586Z,59.30
2018-09-27T12:19:35.780Z,59.00
2018-09-27T12:22:38.834Z,58.70
2018-09-27T12:25:42.072Z,58.70
2018-09-27T12:28:45.095Z,58.90
2018-09-27T12:31:48.336Z,58.90
2018-09-27T12:34:51.467Z,58.90
2018-09-27T12:37:54.574Z,58.80
2018-09-27T12:40:57.698Z,59.00
2018-09-27T12:44:00.875Z,59.40
2018-09-27T12:47:04.025Z,58.80
2018-09-27T12:50:07.260Z,59.00
2018-09-27T12:53:10.438Z,59.20
2018-09-27T12:56:13.512Z,58.80
2018-09-27T12:59:16.686Z,57.80
2018-09-27T13:02:19.822Z,57.40
2018-09-27T13:05:22.932Z,56.60
2018-09-27T13:08:26.064Z,56.80
2018-09-27T13:11:30.046Z,57.00
2018-09-27T13:14:33.248Z,56.20
2018-09-27T13:17:36.368Z,55.90
2018-09-27T13:20:39.484Z,55.30
2018-09-27T13:23:42.623Z,52.40
2018-09-27T13:26:45.793Z,52.70
2018-09-27T13:29:48.906Z,52.20
2018-09-27T13:32:52.096Z,52.20
2018-09-27T13:35:55.164Z,51.60
2018-09-27T13:38:58.336Z,52.60
2018-09-27T13:42:01.414Z,51.10
2018-09-27T13:45:04.541Z,49.30
2018-09-27T13:48:07.641Z,47.60
2018-09-27T13:51:10.801Z,43.80
2018-09-27T13:54:13.909Z,40.50
2018-09-27T13:57:17.031Z,39.00
2018-09-27T14:00:20.138Z,37.10
2018-09-27T14:03:23.233Z,35.70
2018-09-27T14:06:26.469Z,35.50
2018-09-27T14:09:29.607Z,36.00
2018-09-27T14:12:32.710Z,35.30
2018-09-27T14:15:35.838Z,34.20
2018-09-27T14:18:38.946Z,34.30
2018-09-27T14:21:42.123Z,34.90
2018-09-27T14:24:45.269Z,34.20
2018-09-27T14:27:48.405Z,34.70
2018-09-27T14:30:51.559Z,34.40
2018-09-27T14:33:54.675Z,34.50
2018-09-27T14:36:57.745Z,35.20
2018-09-27T14:40:00.935Z,35.50
2018-09-27T14:43:04.034Z,34.90
2018-09-27T14:46:07.142Z,35.20
2018-09-27T14:49:10.229Z,34.70
2018-09-27T14:52:13.581Z,35.70
2018-09-27T14:55:16.722Z,36.60
2018-09-27T14:58:19.834Z,37.00
2018-09-27T15:01:23.021Z,37.40
2018-09-27T15:04:26.195Z,36.30
2018-09-27T15:07:29.323Z,35.90
2018-09-27T15:10:32.491Z,34.70
2018-09-27T15:13:35.579Z,35.20
2018-09-27T15:16:38.707Z,35.90
2018-09-27T15:19:41.819Z,36.00
2018-09-27T15:22:44.977Z,35.50
2018-09-27T15:25:48.089Z,34.80
2018-09-27T15:28:51.209Z,35.20
2018-09-27T15:31:54.375Z,34.00
2018-09-27T15:34:57.515Z,33.40
2018-09-27T15:38:00.695Z,33.40
2018-09-27T15:41:03.938Z,33.20
2018-09-27T15:44:07.143Z,33.20
2018-09-27T15:47:10.287Z,33.60
2018-09-27T15:50:17.314Z,33.70
2018-09-27T15:53:20.422Z,33.60
2018-09-27T15:56:23.537Z,33.90
2018-09-27T15:59:26.660Z,34.50
2018-09-27T16:02:29.851Z,35.40
2018-09-27T16:05:32.957Z,35.80
2018-09-27T16:08:36.119Z,36.80
2018-09-27T16:11:39.337Z,37.50
2018-09-27T16:14:42.528Z,37.70
2018-09-27T16:17:45.834Z,38.30
2018-09-27T16:20:48.924Z,38.70
2018-09-27T16:23:52.083Z,39.00
2018-09-27T16:26:55.618Z,39.50
2018-09-27T16:29:58.726Z,40.00
2018-09-27T16:33:01.883Z,40.50
2018-09-27T16:36:05.003Z,41.00
2018-09-27T16:39:09.266Z,41.10
2018-09-27T16:42:12.375Z,41.70
2018-09-27T16:45:15.507Z,42.10
2018-09-27T16:48:18.613Z,42.30
2018-09-27T16:51:21.818Z,42.40
2018-09-27T16:54:24.942Z,42.50
2018-09-27T16:57:28.086Z,42.70
2018-09-27T17:00:31.227Z,43.20
2018-09-27T17:03:34.430Z,43.70
2018-09-27T17:06:37.586Z,44.70
2018-09-27T17:09:41.450Z,46.20
2018-09-27T17:12:44.558Z,46.60
2018-09-27T17:15:47.722Z,47.30
2018-09-27T17:18:50.854Z,47.50
2018-09-27T17:21:53.990Z,47.40
2018-09-27T17:24:57.131Z,47.20
2018-09-27T17:28:00.262Z,47.30
2018-09-27T17:31:03.422Z,47.40
2018-09-27T17:34:06.675Z,47.40
2018-09-27T17:37:09.814Z,47.50
2018-09-27T17:40:13.003Z,47.40
2018-09-27T17:43:17.171Z,47.60
2018-09-27T17:46:20.299Z,47.90
2018-09-27T17:49:23.429Z,48.20
2018-09-27T17:52:26.609Z,48.30
2018-09-27T17:55:29.712Z,48.80
2018-09-27T17:58:32.875Z,49.10
2018-09-27T18:01:35.978Z,49.50
2018-09-27T18:04:39.172Z,49.30
2018-09-27T18:07:42.227Z,49.50
2018-09-27T18:10:45.398Z,50.30
2018-09-27T18:13:48.656Z,50.90
2018-09-27T18:16:51.887Z,51.10
2018-09-27T18:19:54.982Z,51.00
2018-09-27T18:22:58.112Z,51.30
2018-09-27T18:26:01.415Z,51.70
2018-09-27T18:29:04.618Z,51.80
2018-09-27T18:32:07.749Z,52.00
2018-09-27T18:35:11.314Z,52.10
2018-09-27T18:38:16.297Z,52.40
2018-09-27T18:41:19.743Z,52.30
2018-09-27T18:44:22.902Z,52.50
2018-09-27T18:47:26.037Z,52.10
2018-09-27T18:50:29.143Z,52.10
2018-09-27T18:53:32.974Z,51.90
2018-09-27T18:56:36.177Z,51.60
2018-09-27T18:59:39.314Z,51.80
2018-09-27T19:02:42.515Z,52.30
2018-09-27T19:08:58.783Z,52.00
2018-09-27T19:12:01.986Z,52.30
2018-09-27T19:15:05.130Z,51.40
2018-09-27T19:18:09.907Z,51.00
2018-09-27T19:21:13.054Z,50.60
2018-09-27T19:24:16.193Z,49.80
2018-09-27T19:27:19.327Z,49.40
2018-09-27T19:30:22.518Z,48.80
2018-09-27T19:33:38.969Z,48.40
2018-09-27T19:36:44.082Z,48.60
2018-09-27T19:39:47.303Z,48.50
2018-09-27T19:42:50.462Z,48.50
2018-09-27T19:45:54.115Z,48.50
2018-09-27T19:48:58.311Z,48.60
2018-09-27T19:52:01.929Z,48.90
2018-09-27T19:55:05.577Z,49.20
2018-09-27T19:58:08.955Z,49.40
2018-09-27T20:01:12.139Z,49.20
2018-09-27T20:04:16.631Z,49.60
2018-09-27T20:07:19.646Z,49.80
2018-09-27T20:10:27.557Z,49.80
2018-09-27T20:13:30.767Z,50.90
2018-09-27T20:16:34.022Z,50.40
2018-09-27T20:19:37.282Z,50.60
2018-09-27T20:22:40.394Z,51.00
2018-09-27T20:25:43.565Z,50.80
2018-09-27T20:28:46.663Z,50.80
2018-09-27T20:31:49.813Z,51.00
2018-09-27T20:34:52.991Z,50.70
2018-09-27T20:37:56.066Z,51.10
2018-09-27T20:41:19.493Z,51.50
2018-09-27T20:44:22.666Z,51.70
2018-09-27T20:47:25.839Z,52.00
2018-09-27T20:50:29.062Z,52.60
2018-09-27T20:53:32.220Z,52.00
2018-09-27T20:56:35.362Z,52.30
2018-09-27T20:59:38.522Z,52.50
2018-09-27T21:02:41.678Z,52.60
2018-09-27T21:05:44.807Z,52.80
2018-09-27T21:08:47.930Z,52.90
2018-09-27T21:11:51.032Z,53.00
2018-09-27T21:14:54.179Z,53.40
2018-09-27T21:17:57.272Z,53.50
2018-09-27T21:21:00.422Z,53.80
2018-09-27T21:24:03.518Z,54.10
2018-09-27T21:27:06.439Z,54.30
2018-09-27T21:30:09.566Z,54.10
2018-09-27T21:33:12.722Z,54.40
2018-09-27T21:36:15.808Z,54.60
2018-09-27T21:39:18.949Z,55.00
2018-09-27T21:42:22.106Z,55.00
2018-09-27T21:45:27.356Z,55.10
2018-09-27T21:48:30.486Z,55.30
2018-09-27T21:51:34.278Z,55.60
2018-09-27T21:54:37.408Z,56.20
2018-09-27T21:57:40.570Z,56.10
2018-09-27T22:00:43.683Z,56.30
2018-09-27T22:03:46.842Z,56.10
2018-09-27T22:06:50.602Z,56.50
2018-09-27T22:09:54.990Z,56.60
2018-09-27T22:12:58.106Z,56.60
2018-09-27T22:16:01.214Z,57.40
2018-09-27T22:19:04.351Z,57.30
2018-09-27T22:22:07.544Z,57.60
2018-09-27T22:25:10.667Z,57.80
2018-09-27T22:28:13.899Z,58.30
2018-09-27T22:31:17.034Z,58.20
2018-09-27T22:34:20.187Z,58.20
2018-09-27T22:37:23.378Z,58.40
2018-09-27T22:40:26.482Z,59.10
2018-09-27T22:43:29.626Z,59.40
2018-09-27T22:46:32.745Z,59.90
2018-09-27T22:49:36.036Z,61.10
2018-09-27T22:52:39.143Z,61.30
2018-09-27T22:55:42.319Z,61.50
2018-09-27T22:58:45.410Z,61.30
2018-09-27T23:01:48.518Z,61.00
2018-09-27T23:04:51.646Z,61.60
2018-09-27T23:07:55.051Z,62.20
2018-09-27T23:10:58.175Z,62.50
2018-09-27T23:14:02.696Z,62.10
2018-09-27T23:17:05.826Z,62.40
2018-09-27T23:20:09.815Z,62.60
2018-09-27T23:23:12.901Z,63.00
2018-09-27T23:26:16.064Z,63.30
2018-09-27T23:29:19.167Z,63.60
2018-09-27T23:32:22.349Z,64.20
2018-09-27T23:35:25.511Z,65.40
2018-09-27T23:38:28.599Z,66.00
2018-09-27T23:41:31.706Z,66.70
2018-09-27T23:44:34.822Z,67.40
2018-09-27T23:47:37.948Z,68.00
2018-09-27T23:50:41.069Z,68.40
2018-09-27T23:53:44.386Z,68.70
2018-09-27T23:56:47.571Z,68.90
2018-09-27T23:59:50.702Z,69.40
